createdAt,value
2018-03-19T00:02:04.872Z,88.20
2018-03-19T00:04:34.918Z,88.60
2018-03-19T00:07:04.909Z,88.50
2018-03-19T00:09:35.717Z,89.10
2018-03-19T00:12:06.509Z,88.40
2018-03-19T00:14:36.524Z,88.30
2018-03-19T00:17:06.539Z,88.60
2018-03-19T00:19:36.537Z,88.60
2018-03-19T00:22:07.332Z,88.50
2018-03-19T00:24:37.400Z,88.50
2018-03-19T00:27:07.417Z,88.20
2018-03-19T00:29:38.151Z,88.50
2018-03-19T00:32:08.119Z,88.50
2018-03-19T00:34:38.920Z,88.40
2018-03-19T00:37:08.900Z,88.40
2018-03-19T00:39:39.660Z,88.70
2018-03-19T00:42:09.680Z,88.60
2018-03-19T00:44:39.690Z,88.10
2018-03-19T00:47:09.653Z,88.90
2018-03-19T00:49:39.630Z,89.20
2018-03-19T00:52:09.621Z,89.20
2018-03-19T00:54:39.600Z,88.50
2018-03-19T00:57:10.405Z,88.60
2018-03-19T00:59:41.179Z,88.60
2018-03-19T01:02:11.117Z,88.50
2018-03-19T01:04:41.098Z,88.00
2018-03-19T01:07:11.089Z,89.30
2018-03-19T01:09:41.072Z,89.10
2018-03-19T01:12:11.078Z,88.50
2018-03-19T01:14:41.844Z,90.00
2018-03-19T01:17:11.824Z,89.40
2018-03-19T01:19:42.553Z,89.40
2018-03-19T01:22:13.303Z,90.20
2018-03-19T01:24:43.297Z,90.20
2018-03-19T01:27:13.251Z,90.10
2018-03-19T01:29:43.239Z,89.40
2018-03-19T01:32:13.998Z,90.00
2018-03-19T01:34:43.997Z,90.00
2018-03-19T01:37:14.695Z,90.20
2018-03-19T01:39:45.509Z,90.30
2018-03-19T01:42:16.307Z,90.00
2018-03-19T01:44:46.292Z,90.00
2018-03-19T01:47:17.087Z,90.20
2018-03-19T01:49:47.084Z,90.20
2018-03-19T01:52:17.981Z,90.10
2018-03-19T01:54:48.018Z,90.10
2018-03-19T01:57:18.790Z,90.20
2018-03-19T01:59:48.798Z,90.20
2018-03-19T02:02:18.780Z,90.20
2018-03-19T02:04:49.570Z,90.00
2018-03-19T02:07:19.594Z,90.00
2018-03-19T02:09:49.572Z,90.30
2018-03-19T02:12:19.956Z,90.30
2018-03-19T02:14:50.718Z,90.40
2018-03-19T02:17:21.461Z,90.20
2018-03-19T02:19:52.632Z,90.30
2018-03-19T02:22:22.633Z,90.30
2018-03-19T02:24:52.602Z,90.20
2018-03-19T02:27:23.334Z,90.10
2018-03-19T02:29:54.100Z,90.00
2018-03-19T02:32:24.817Z,90.00
2018-03-19T02:34:55.579Z,89.70
2018-03-19T02:37:25.559Z,89.70
2018-03-19T02:39:56.322Z,90.00
2018-03-19T02:42:26.359Z,89.90
2018-03-19T02:44:56.370Z,90.20
2018-03-19T02:47:26.310Z,90.00
2018-03-19T02:49:56.294Z,90.20
2018-03-19T02:52:26.249Z,90.40
2018-03-19T02:54:57.131Z,90.00
2018-03-19T02:57:27.099Z,90.00
2018-03-19T02:59:57.026Z,90.20
2018-03-19T03:02:26.905Z,90.20
2018-03-19T03:04:56.829Z,90.30
2018-03-19T03:07:26.730Z,90.40
2018-03-19T03:09:56.574Z,90.50
2018-03-19T03:12:26.433Z,90.20
2018-03-19T03:14:57.114Z,90.40
2018-03-19T03:17:26.973Z,90.40
2018-03-19T03:19:56.846Z,90.00
2018-03-19T03:22:27.537Z,90.20
2018-03-19T03:24:57.434Z,90.10
2018-03-19T03:27:28.105Z,90.40
2018-03-19T03:29:58.025Z,90.30
2018-03-19T03:32:27.970Z,90.20
2018-03-19T03:34:58.673Z,90.20
2018-03-19T03:37:28.573Z,90.20
2018-03-19T03:39:58.498Z,90.40
2018-03-19T03:42:28.381Z,90.60
2018-03-19T03:44:59.009Z,90.50
2018-03-19T03:47:29.625Z,90.40
2018-03-19T03:50:00.266Z,90.50
2018-03-19T03:52:30.881Z,90.30
2018-03-19T03:55:01.520Z,90.40
2018-03-19T03:57:32.186Z,90.60
2018-03-19T04:00:02.054Z,90.60
2018-03-19T04:02:31.955Z,90.40
2018-03-19T04:05:01.806Z,90.30
2018-03-19T04:07:32.465Z,90.50
2018-03-19T04:10:02.321Z,90.50
2018-03-19T04:12:32.981Z,90.50
2018-03-19T04:15:02.845Z,90.50
2018-03-19T04:17:32.754Z,90.50
2018-03-19T04:20:02.653Z,90.20
2018-03-19T04:22:32.553Z,90.30
2018-03-19T04:25:02.443Z,90.30
2018-03-19T04:27:33.093Z,90.30
2018-03-19T04:30:02.970Z,90.30
2018-03-19T04:32:33.625Z,90.20
2018-03-19T04:35:04.334Z,90.50
2018-03-19T04:37:34.997Z,90.70
2018-03-19T04:40:05.635Z,90.30
2018-03-19T04:42:35.614Z,90.30
2018-03-19T04:45:06.253Z,90.30
2018-03-19T04:47:36.916Z,90.50
2018-03-19T04:50:06.793Z,90.50
2018-03-19T04:52:37.497Z,90.20
2018-03-19T04:55:08.224Z,90.60
2018-03-19T04:57:38.117Z,90.60
2018-03-19T05:00:07.994Z,90.10
2018-03-19T05:02:37.907Z,90.10
2018-03-19T05:05:08.580Z,90.30
2018-03-19T05:07:38.433Z,90.30
2018-03-19T05:10:08.414Z,90.20
2018-03-19T05:12:38.314Z,90.30
2018-03-19T05:15:08.201Z,90.40
2018-03-19T05:17:38.908Z,90.60
2018-03-19T05:20:09.607Z,90.30
2018-03-19T05:22:39.466Z,90.30
2018-03-19T05:25:10.133Z,90.50
2018-03-19T05:27:40.854Z,90.40
2018-03-19T05:30:11.636Z,90.80
2018-03-19T05:32:41.554Z,90.80
2018-03-19T05:35:11.457Z,91.00
2018-03-19T05:37:41.370Z,91.00
2018-03-19T05:40:11.227Z,91.50
2018-03-19T05:42:41.138Z,91.50
2018-03-19T05:45:11.786Z,92.30
2018-03-19T05:47:42.426Z,92.30
2018-03-19T05:50:12.315Z,92.30
2018-03-19T05:52:42.969Z,92.00
2018-03-19T05:55:12.890Z,92.00
2018-03-19T05:57:42.745Z,92.10
2018-03-19T06:00:12.682Z,92.20
2018-03-19T06:02:43.405Z,92.50
2018-03-19T06:05:13.273Z,92.50
2018-03-19T06:07:43.133Z,92.80
2018-03-19T06:10:13.863Z,92.80
2018-03-19T06:12:43.737Z,92.80
2018-03-19T06:15:13.619Z,93.00
2018-03-19T06:17:43.512Z,92.40
2018-03-19T06:20:14.257Z,92.80
2018-03-19T06:22:45.036Z,92.70
2018-03-19T06:25:14.973Z,92.70
2018-03-19T06:27:44.834Z,93.10
2018-03-19T06:30:14.734Z,93.60
2018-03-19T06:32:44.699Z,93.40
2018-03-19T06:35:14.554Z,93.30
2018-03-19T06:37:45.214Z,93.70
2018-03-19T06:40:15.087Z,93.60
2018-03-19T06:42:44.974Z,94.10
2018-03-19T06:45:15.822Z,94.60
2018-03-19T06:47:45.717Z,94.60
2018-03-19T06:50:15.587Z,94.60
2018-03-19T06:52:46.504Z,94.70
2018-03-19T06:55:17.139Z,94.60
2018-03-19T06:57:47.068Z,94.70
2018-03-19T07:00:17.717Z,94.20
2018-03-19T07:02:47.570Z,94.20
2018-03-19T07:05:17.447Z,94.60
2018-03-19T07:07:47.357Z,94.20
2018-03-19T07:10:17.209Z,94.40
2018-03-19T07:12:47.096Z,93.70
2018-03-19T07:15:17.013Z,93.50
2018-03-19T07:17:46.932Z,93.20
2018-03-19T07:20:16.891Z,93.10
2018-03-19T07:22:47.617Z,93.00
2018-03-19T07:25:17.526Z,93.20
2018-03-19T07:27:47.446Z,93.10
2018-03-19T07:30:18.166Z,93.10
2018-03-19T07:32:48.069Z,93.10
2018-03-19T07:35:17.982Z,93.10
2018-03-19T07:37:47.945Z,94.00
2018-03-19T07:40:18.654Z,94.10
2018-03-19T07:42:49.309Z,94.30
2018-03-19T07:45:19.916Z,94.60
2018-03-19T07:47:49.770Z,94.60
2018-03-19T07:50:20.382Z,94.90
2018-03-19T07:52:51.025Z,94.40
2018-03-19T07:55:21.675Z,94.60
2018-03-19T07:57:52.269Z,94.50
2018-03-19T08:00:22.924Z,94.50
2018-03-19T08:02:53.525Z,94.60
2018-03-19T08:05:24.162Z,94.40
2018-03-19T08:07:54.812Z,94.60
2018-03-19T08:10:25.428Z,94.90
2018-03-19T08:12:56.058Z,94.40
2018-03-19T08:15:26.702Z,94.30
2018-03-19T08:17:56.575Z,94.30
2018-03-19T08:20:26.414Z,94.00
2018-03-19T08:22:56.337Z,93.90
2018-03-19T08:25:26.948Z,93.90
2018-03-19T08:27:57.619Z,94.50
2018-03-19T08:30:27.520Z,94.40
2018-03-19T08:32:58.155Z,94.70
2018-03-19T08:35:28.793Z,94.90
2018-03-19T08:37:59.734Z,94.60
2018-03-19T08:40:30.376Z,94.50
2018-03-19T08:43:01.014Z,94.40
2018-03-19T08:45:30.851Z,94.40
2018-03-19T08:48:00.747Z,94.10
2018-03-19T08:50:30.581Z,94.50
2018-03-19T08:53:00.420Z,94.20
2018-03-19T08:55:30.289Z,94.10
2018-03-19T08:58:00.149Z,94.00
2018-03-19T09:00:30.808Z,93.90
2018-03-19T09:03:00.669Z,93.50
2018-03-19T09:05:30.507Z,93.50
2018-03-19T09:08:01.154Z,93.10
2018-03-19T09:10:31.921Z,93.10
2018-03-19T09:13:01.787Z,93.10
2018-03-19T09:15:31.609Z,92.70
2018-03-19T09:18:02.380Z,93.20
2018-03-19T09:20:32.277Z,92.90
2018-03-19T09:23:03.305Z,92.30
2018-03-19T09:25:33.222Z,92.30
2018-03-19T09:28:03.854Z,91.60
2018-03-19T09:30:33.712Z,91.60
2018-03-19T09:33:03.587Z,91.40
2018-03-19T09:35:33.469Z,91.50
2018-03-19T09:38:04.179Z,91.00
2018-03-19T09:40:34.108Z,91.00
2018-03-19T09:43:04.028Z,91.00
2018-03-19T09:45:34.685Z,90.70
2018-03-19T09:48:04.587Z,90.70
2018-03-19T09:50:35.290Z,91.60
2018-03-19T09:53:05.182Z,91.60
2018-03-19T09:55:35.071Z,91.10
2018-03-19T09:58:04.966Z,90.90
2018-03-19T10:00:34.838Z,91.60
2018-03-19T10:03:04.721Z,91.80
2018-03-19T10:05:34.647Z,92.20
2018-03-19T10:08:05.373Z,92.40
2018-03-19T10:10:35.277Z,92.40
2018-03-19T10:13:05.426Z,92.50
2018-03-19T10:15:35.326Z,92.90
2018-03-19T10:18:07.322Z,92.70
2018-03-19T10:20:37.421Z,93.80
2018-03-19T10:23:08.157Z,94.50
2018-03-19T10:25:38.040Z,94.50
2018-03-19T10:28:07.906Z,94.50
2018-03-19T10:30:38.606Z,95.00
2018-03-19T10:33:08.506Z,95.00
2018-03-19T10:35:38.386Z,94.60
2018-03-19T10:38:08.274Z,94.30
2018-03-19T10:40:39.067Z,94.30
2018-03-19T10:43:08.986Z,94.30
2018-03-19T10:45:38.880Z,94.40
2018-03-19T10:48:08.797Z,94.40
2018-03-19T10:50:38.670Z,93.90
2018-03-19T10:53:09.333Z,93.70
2018-03-19T10:55:39.809Z,93.70
2018-03-19T10:58:09.690Z,94.00
2018-03-19T11:00:39.675Z,94.00
2018-03-19T11:03:10.427Z,93.20
2018-03-19T11:05:45.786Z,93.10
2018-03-19T11:11:16.954Z,93.50
2018-03-19T11:13:48.401Z,93.60
2018-03-19T11:16:18.267Z,93.60
2018-03-19T11:18:48.933Z,93.50
2018-03-19T11:21:18.805Z,93.40
2018-03-19T11:23:49.457Z,93.10
2018-03-19T11:26:20.086Z,92.80
2018-03-19T11:28:50.014Z,92.80
2018-03-19T11:31:20.787Z,92.00
2018-03-19T11:33:50.646Z,92.00
2018-03-19T11:36:21.240Z,91.40
2018-03-19T11:38:51.109Z,91.40
2018-03-19T11:41:22.274Z,91.80
2018-03-19T11:43:52.229Z,91.80
2018-03-19T11:46:22.874Z,91.90
2018-03-19T11:48:52.686Z,91.90
2018-03-19T11:51:24.258Z,91.90
2018-03-19T11:53:54.134Z,91.90
2018-03-19T11:56:24.755Z,91.60
2018-03-19T11:58:54.596Z,91.60
2018-03-19T12:01:25.239Z,92.20
2018-03-19T12:03:55.909Z,91.70
2018-03-19T12:06:25.772Z,91.70
2018-03-19T12:08:56.379Z,91.30
2018-03-19T12:11:27.014Z,91.10
2018-03-19T12:13:56.950Z,91.00
2018-03-19T12:16:26.835Z,92.20
2018-03-19T12:18:56.712Z,92.40
2018-03-19T12:21:26.554Z,92.20
2018-03-19T12:23:57.236Z,93.20
2018-03-19T12:26:27.918Z,92.20
2018-03-19T12:28:57.795Z,92.20
2018-03-19T12:31:28.402Z,91.20
2018-03-19T12:33:59.007Z,91.80
2018-03-19T12:36:28.944Z,91.80
2018-03-19T12:38:58.896Z,90.90
2018-03-19T12:41:28.726Z,90.80
2018-03-19T12:43:58.661Z,91.90
2018-03-19T12:46:28.520Z,90.70
2018-03-19T12:48:59.374Z,91.00
2018-03-19T12:51:31.114Z,91.00
2018-03-19T12:54:01.900Z,89.70
2018-03-19T12:56:31.793Z,89.70
2018-03-19T12:59:02.794Z,90.20
2018-03-19T13:01:32.636Z,90.10
2018-03-19T13:04:02.500Z,91.10
2018-03-19T13:06:33.170Z,91.90
2018-03-19T13:09:03.154Z,91.80
2018-03-19T13:11:33.057Z,91.90
2018-03-19T13:14:03.694Z,91.00
2018-03-19T13:16:34.305Z,91.40
2018-03-19T13:19:04.266Z,91.40
2018-03-19T13:21:35.081Z,92.00
2018-03-19T13:24:05.725Z,92.00
2018-03-19T13:26:36.324Z,91.90
2018-03-19T13:29:06.194Z,91.90
2018-03-19T13:31:36.079Z,91.30
2018-03-19T13:34:06.718Z,91.50
2018-03-19T13:36:37.381Z,91.60
2018-03-19T13:39:07.252Z,91.50
2018-03-19T13:41:37.188Z,92.10
2018-03-19T13:44:07.072Z,91.70
2018-03-19T13:46:37.744Z,91.90
2018-03-19T13:49:08.653Z,91.90
2018-03-19T13:51:39.294Z,92.10
2018-03-19T13:54:09.195Z,92.10
2018-03-19T13:56:39.838Z,93.70
2018-03-19T13:59:10.486Z,93.30
2018-03-19T14:01:40.401Z,93.30
2018-03-19T14:04:10.297Z,94.30
2018-03-19T14:06:40.217Z,94.00
2018-03-19T14:09:10.089Z,94.60
2018-03-19T14:11:40.835Z,94.80
2018-03-19T14:14:11.506Z,94.80
2018-03-19T14:16:41.393Z,94.80
2018-03-19T14:19:12.074Z,95.50
2018-03-19T14:21:41.929Z,95.50
2018-03-19T14:24:11.792Z,95.10
2018-03-19T14:26:41.625Z,95.20
2018-03-19T14:29:11.495Z,95.50
2018-03-19T14:31:41.388Z,95.60
2018-03-19T14:34:11.388Z,95.50
2018-03-19T14:36:42.043Z,95.90
2018-03-19T14:39:12.700Z,95.30
2018-03-19T14:41:42.630Z,95.20
2018-03-19T14:44:12.471Z,95.80
2018-03-19T14:46:43.142Z,95.90
2018-03-19T14:49:13.055Z,95.90
2018-03-19T14:51:42.891Z,95.60
2018-03-19T14:54:12.754Z,95.90
2018-03-19T14:56:43.510Z,95.50
2018-03-19T14:59:14.157Z,94.70
2018-03-19T15:01:45.061Z,95.70
2018-03-19T15:04:15.723Z,95.70
2018-03-19T15:06:46.618Z,95.90
2018-03-19T15:09:17.277Z,95.80
2018-03-19T15:11:47.884Z,95.60
2018-03-19T15:14:17.756Z,95.60
2018-03-19T15:16:47.695Z,95.90
2018-03-19T15:19:17.585Z,96.20
2018-03-19T15:21:47.575Z,95.70
2018-03-19T15:24:18.183Z,95.90
2018-03-19T15:26:48.913Z,96.20
2018-03-19T15:29:19.574Z,95.40
2018-03-19T15:31:49.438Z,95.40
2018-03-19T15:34:20.093Z,95.50
2018-03-19T15:36:50.773Z,95.90
2018-03-19T15:39:20.717Z,95.90
2018-03-19T15:41:51.374Z,95.70
2018-03-19T15:44:21.275Z,95.70
2018-03-19T15:46:51.896Z,95.60
2018-03-19T15:49:22.626Z,94.90
2018-03-19T15:51:54.085Z,94.80
2018-03-19T15:54:24.742Z,95.20
2018-03-19T15:56:54.589Z,95.20
2018-03-19T15:59:24.482Z,94.40
2018-03-19T16:01:54.373Z,94.50
2018-03-19T16:04:24.323Z,94.40
2018-03-19T16:06:54.246Z,94.00
2018-03-19T16:09:24.140Z,94.00
2018-03-19T16:11:54.030Z,94.00
2018-03-19T16:14:24.644Z,93.70
2018-03-19T16:16:55.313Z,94.00
2018-03-19T16:19:25.240Z,94.00
2018-03-19T16:21:55.105Z,93.80
2018-03-19T16:24:25.782Z,94.70
2018-03-19T16:26:55.608Z,94.70
2018-03-19T16:29:25.524Z,95.10
2018-03-19T16:31:55.393Z,95.20
2018-03-19T16:34:26.036Z,95.50
2018-03-19T16:36:56.974Z,95.40
2018-03-19T16:39:27.716Z,95.30
2018-03-19T16:41:57.841Z,95.30
2018-03-19T16:44:27.803Z,95.90
2018-03-19T16:46:57.662Z,95.60
2018-03-19T16:49:27.516Z,95.70
2018-03-19T16:51:57.397Z,95.30
2018-03-19T16:54:27.355Z,95.60
2018-03-19T16:56:57.286Z,95.60
2018-03-19T16:59:27.962Z,95.10
2018-03-19T17:01:57.840Z,95.10
2018-03-19T17:04:27.762Z,95.10
2018-03-19T17:06:58.453Z,95.40
2018-03-19T17:09:28.361Z,95.10
2018-03-19T17:11:58.779Z,94.40
2018-03-19T17:14:28.641Z,94.40
2018-03-19T17:16:59.290Z,94.20
2018-03-19T17:19:29.946Z,94.60
2018-03-19T17:21:59.889Z,94.60
2018-03-19T17:24:30.535Z,95.10
2018-03-19T17:27:00.421Z,95.00
2018-03-19T17:29:30.330Z,95.20
2018-03-19T17:32:00.242Z,95.20
2018-03-19T17:34:30.112Z,95.20
2018-03-19T17:37:00.765Z,94.80
2018-03-19T17:39:31.559Z,95.00
2018-03-19T17:42:01.528Z,95.00
2018-03-19T17:44:31.434Z,95.10
2018-03-19T17:47:01.357Z,95.20
2018-03-19T17:49:31.596Z,95.60
2018-03-19T17:52:01.518Z,95.30
2018-03-19T17:54:31.374Z,95.20
2018-03-19T17:57:02.021Z,95.40
2018-03-19T17:59:31.945Z,95.40
2018-03-19T18:02:01.870Z,95.50
2018-03-19T18:04:32.675Z,95.00
2018-03-19T18:07:03.345Z,95.50
2018-03-19T18:09:34.094Z,95.50
2018-03-19T18:12:04.227Z,95.60
2018-03-19T18:14:34.046Z,95.50
2018-03-19T18:17:04.735Z,95.50
2018-03-19T18:19:34.596Z,95.50
2018-03-19T18:22:04.572Z,95.90
2018-03-19T18:24:34.474Z,96.10
2018-03-19T18:27:04.927Z,96.10
2018-03-19T18:29:35.620Z,96.50
2018-03-19T18:32:05.522Z,96.50
2018-03-19T18:34:35.494Z,96.80
2018-03-19T18:37:05.462Z,96.60
2018-03-19T18:39:36.086Z,96.40
2018-03-19T18:42:06.765Z,96.50
2018-03-19T18:44:36.628Z,96.50
2018-03-19T18:47:07.369Z,96.50
2018-03-19T18:49:37.325Z,96.50
2018-03-19T18:52:07.234Z,96.20
2018-03-19T18:54:37.168Z,96.30
2018-03-19T18:57:07.078Z,96.50
2018-03-19T18:59:37.839Z,96.50
2018-03-19T19:02:08.565Z,96.00
2018-03-19T19:04:39.209Z,96.20
2018-03-19T19:07:09.862Z,96.60
2018-03-19T19:09:39.742Z,96.50
2018-03-19T19:12:10.548Z,96.80
2018-03-19T19:14:40.506Z,96.80
2018-03-19T19:17:11.444Z,96.50
2018-03-19T19:19:41.397Z,96.50
2018-03-19T19:22:11.293Z,96.50
2018-03-19T19:24:41.197Z,96.50
2018-03-19T19:27:11.842Z,96.30
2018-03-19T19:29:41.742Z,96.30
2018-03-19T19:32:12.417Z,96.50
2018-03-19T19:34:42.338Z,96.50
2018-03-19T19:37:12.212Z,96.50
2018-03-19T19:39:42.150Z,96.80
2018-03-19T19:42:12.934Z,96.90
2018-03-19T19:44:43.616Z,97.30
2018-03-19T19:47:13.515Z,97.30
2018-03-19T19:49:43.416Z,97.20
2018-03-19T19:52:14.047Z,97.30
2018-03-19T19:54:43.953Z,97.30
2018-03-19T19:57:14.657Z,97.00
2018-03-19T19:59:44.545Z,96.90
2018-03-19T20:02:14.474Z,96.90
2018-03-19T20:04:44.354Z,97.00
2018-03-19T20:07:14.227Z,96.90
2018-03-19T20:09:44.928Z,96.90
2018-03-19T20:12:15.638Z,96.90
2018-03-19T20:14:45.549Z,96.70
2018-03-19T20:17:15.400Z,96.40
2018-03-19T20:19:45.295Z,96.00
2018-03-19T20:22:15.219Z,96.30
2018-03-19T20:24:45.147Z,96.20
2018-03-19T20:27:15.864Z,95.60
2018-03-19T20:29:46.523Z,95.30
2018-03-19T20:32:18.121Z,95.20
2018-03-19T20:34:48.045Z,95.20
2018-03-19T20:37:17.984Z,95.30
2018-03-19T20:39:48.021Z,94.90
2018-03-19T20:42:18.697Z,95.20
2018-03-19T20:44:48.575Z,95.20
2018-03-19T20:47:19.254Z,95.30
2018-03-19T20:49:51.110Z,95.30
2018-03-19T20:52:21.842Z,95.30
2018-03-19T20:54:51.774Z,95.30
2018-03-19T20:57:21.654Z,94.70
2018-03-19T20:59:52.317Z,95.10
2018-03-19T21:02:22.254Z,95.10
2018-03-19T21:04:52.959Z,95.30
2018-03-19T21:07:22.874Z,95.30
2018-03-19T21:09:53.586Z,95.30
2018-03-19T21:12:23.455Z,95.30
2018-03-19T21:14:54.144Z,96.00
2018-03-19T21:17:24.038Z,95.90
2018-03-19T21:19:53.947Z,95.70
2018-03-19T21:22:23.819Z,95.80
2018-03-19T21:24:54.494Z,96.00
2018-03-19T21:27:24.366Z,95.90
2018-03-19T21:29:54.646Z,96.20
2018-03-19T21:32:24.562Z,95.80
2018-03-19T21:34:55.279Z,95.90
2018-03-19T21:37:25.166Z,95.90
2018-03-19T21:39:55.856Z,96.00
2018-03-19T21:42:25.756Z,96.00
2018-03-19T21:44:55.658Z,96.10
2018-03-19T21:47:25.545Z,96.00
2018-03-19T21:49:56.202Z,96.20
2018-03-19T21:52:26.076Z,96.20
2018-03-19T21:54:56.766Z,96.30
2018-03-19T21:57:26.694Z,96.30
2018-03-19T21:59:56.578Z,96.20
2018-03-19T22:02:26.458Z,96.40
2018-03-19T22:04:57.144Z,96.30
2018-03-19T22:07:27.034Z,96.30
2018-03-19T22:09:56.933Z,96.20
2018-03-19T22:12:27.581Z,96.00
2018-03-19T22:14:57.474Z,96.00
2018-03-19T22:17:28.114Z,96.30
2018-03-19T22:19:59.086Z,96.20
2018-03-19T22:22:29.174Z,96.20
2018-03-19T22:24:59.800Z,95.90
2018-03-19T22:27:29.670Z,95.90
2018-03-19T22:29:59.555Z,95.90
2018-03-19T22:32:29.454Z,95.60
2018-03-19T22:34:59.340Z,95.90
2018-03-19T22:37:29.238Z,95.90
2018-03-19T22:39:59.942Z,95.90
2018-03-19T22:42:30.689Z,95.80
2018-03-19T22:45:01.392Z,95.20
2018-03-19T22:47:31.294Z,95.20
2018-03-19T22:50:01.166Z,95.20
2018-03-19T22:52:31.094Z,95.20
2018-03-19T22:55:01.750Z,94.90
2018-03-19T22:57:31.716Z,94.90
2018-03-19T23:00:01.594Z,94.90
2018-03-19T23:02:31.523Z,95.10
2018-03-19T23:08:06.677Z,95.10
2018-03-19T23:10:42.053Z,95.20
2018-03-19T23:13:17.382Z,95.20
2018-03-19T23:15:48.790Z,94.70
2018-03-19T23:18:18.665Z,94.70
2018-03-19T23:20:49.354Z,95.10
2018-03-19T23:23:19.253Z,95.10
2018-03-19T23:25:49.137Z,95.10
2018-03-19T23:28:19.794Z,95.10
2018-03-19T23:30:49.725Z,95.10
2018-03-19T23:33:19.633Z,95.20
2018-03-19T23:35:49.484Z,95.00
2018-03-19T23:38:20.522Z,95.10
2018-03-19T23:40:50.382Z,95.10
2018-03-19T23:43:20.273Z,95.10
2018-03-19T23:45:50.925Z,95.10
2018-03-19T23:48:20.833Z,95.10
2018-03-19T23:50:50.694Z,95.10
2018-03-19T23:53:20.562Z,95.10
2018-03-19T23:55:51.214Z,95.10
2018-03-19T23:58:21.125Z,95.50
